sensor_id;sensor_type;location;lat;lon;timestamp;P1;durP1;ratioP1;P2;durP2;ratioP2
13847;SDS011;6994;49.752;6.094;2022-08-01T00:01:37;1.27;;;0.80;;
13847;SDS011;6994;49.752;6.094;2022-08-01T00:04:05;1.02;;;0.98;;
13847;SDS011;6994;49.752;6.094;2022-08-01T00:06:32;2.43;;;1.27;;
13847;SDS011;6994;49.752;6.094;2022-08-01T00:08:59;1.65;;;1.00;;
13847;SDS011;6994;49.752;6.094;2022-08-01T00:11:26;1.50;;;1.10;;
13847;SDS011;6994;49.752;6.094;2022-08-01T00:13:53;1.00;;;1.00;;
13847;SDS011;6994;49.752;6.094;2022-08-01T00:16:21;3.33;;;0.95;;
13847;SDS011;6994;49.752;6.094;2022-08-01T00:18:49;0.82;;;0.80;;
13847;SDS011;6994;49.752;6.094;2022-08-01T00:21:16;1.20;;;1.10;;
13847;SDS011;6994;49.752;6.094;2022-08-01T00:23:43;2.42;;;1.00;;
13847;SDS011;6994;49.752;6.094;2022-08-01T00:26:11;1.48;;;1.40;;
13847;SDS011;6994;49.752;6.094;2022-08-01T00:28:40;1.27;;;1.00;;
13847;SDS011;6994;49.752;6.094;2022-08-01T00:31:07;1.20;;;1.00;;
13847;SDS011;6994;49.752;6.094;2022-08-01T00:33:34;1.67;;;1.05;;
13847;SDS011;6994;49.752;6.094;2022-08-01T00:36:02;1.35;;;1.15;;
13847;SDS011;6994;49.752;6.094;2022-08-01T00:38:29;1.40;;;1.30;;
13847;SDS011;6994;49.752;6.094;2022-08-01T00:40:56;1.12;;;1.02;;
13847;SDS011;6994;49.752;6.094;2022-08-01T00:43:23;2.45;;;1.25;;
13847;SDS011;6994;49.752;6.094;2022-08-01T00:45:50;0.98;;;0.95;;
13847;SDS011;6994;49.752;6.094;2022-08-01T00:48:18;1.08;;;1.00;;
13847;SDS011;6994;49.752;6.094;2022-08-01T00:50:46;1.30;;;0.98;;
13847;SDS011;6994;49.752;6.094;2022-08-01T00:53:14;1.98;;;0.90;;
13847;SDS011;6994;49.752;6.094;2022-08-01T00:55:41;1.27;;;1.15;;
13847;SDS011;6994;49.752;6.094;2022-08-01T00:58:08;1.20;;;0.90;;
13847;SDS011;6994;49.752;6.094;2022-08-01T01:00:35;2.58;;;1.23;;
13847;SDS011;6994;49.752;6.094;2022-08-01T01:03:02;3.60;;;0.98;;
13847;SDS011;6994;49.752;6.094;2022-08-01T01:05:30;1.17;;;1.08;;
13847;SDS011;6994;49.752;6.094;2022-08-01T01:07:59;1.15;;;1.00;;
13847;SDS011;6994;49.752;6.094;2022-08-01T01:16:02;1.90;;;1.80;;
13847;SDS011;6994;49.752;6.094;2022-08-01T01:18:29;2.85;;;1.52;;
13847;SDS011;6994;49.752;6.094;2022-08-01T01:21:02;1.58;;;1.33;;
13847;SDS011;6994;49.752;6.094;2022-08-01T01:29:31;2.00;;;1.50;;
13847;SDS011;6994;49.752;6.094;2022-08-01T01:31:59;1.83;;;1.73;;
13847;SDS011;6994;49.752;6.094;2022-08-01T01:34:35;1.30;;;1.23;;
13847;SDS011;6994;49.752;6.094;2022-08-01T01:37:02;1.23;;;1.12;;
13847;SDS011;6994;49.752;6.094;2022-08-01T01:39:29;0.98;;;0.98;;
13847;SDS011;6994;49.752;6.094;2022-08-01T01:41:57;1.10;;;1.00;;
13847;SDS011;6994;49.752;6.094;2022-08-01T01:44:25;2.80;;;1.83;;
13847;SDS011;6994;49.752;6.094;2022-08-01T01:46:52;2.35;;;1.05;;
13847;SDS011;6994;49.752;6.094;2022-08-01T01:49:20;2.55;;;1.10;;
13847;SDS011;6994;49.752;6.094;2022-08-01T01:51:46;1.37;;;1.27;;
13847;SDS011;6994;49.752;6.094;2022-08-01T01:54:13;0.90;;;0.90;;
13847;SDS011;6994;49.752;6.094;2022-08-01T01:56:41;1.40;;;1.30;;
13847;SDS011;6994;49.752;6.094;2022-08-01T01:59:08;3.10;;;1.77;;
13847;SDS011;6994;49.752;6.094;2022-08-01T02:01:35;1.40;;;1.30;;
13847;SDS011;6994;49.752;6.094;2022-08-01T02:04:02;1.75;;;1.27;;
13847;SDS011;6994;49.752;6.094;2022-08-01T02:06:29;3.60;;;1.08;;
13847;SDS011;6994;49.752;6.094;2022-08-01T02:08:57;1.17;;;1.00;;
13847;SDS011;6994;49.752;6.094;2022-08-01T02:11:25;1.75;;;1.65;;
13847;SDS011;6994;49.752;6.094;2022-08-01T02:13:53;1.42;;;1.30;;
13847;SDS011;6994;49.752;6.094;2022-08-01T02:16:21;2.35;;;1.45;;
13847;SDS011;6994;49.752;6.094;2022-08-01T02:18:47;2.47;;;1.52;;
13847;SDS011;6994;49.752;6.094;2022-08-01T02:21:16;1.60;;;1.50;;
13847;SDS011;6994;49.752;6.094;2022-08-01T02:23:41;2.03;;;1.40;;
13847;SDS011;6994;49.752;6.094;2022-08-01T02:26:10;2.10;;;1.62;;
13847;SDS011;6994;49.752;6.094;2022-08-01T02:28:38;1.10;;;1.10;;
13847;SDS011;6994;49.752;6.094;2022-08-01T02:31:06;3.53;;;1.45;;
13847;SDS011;6994;49.752;6.094;2022-08-01T02:33:38;4.07;;;1.40;;
13847;SDS011;6994;49.752;6.094;2022-08-01T02:36:03;1.60;;;1.25;;
13847;SDS011;6994;49.752;6.094;2022-08-01T02:38:30;1.15;;;1.15;;
13847;SDS011;6994;49.752;6.094;2022-08-01T02:40:59;1.00;;;0.90;;
13847;SDS011;6994;49.752;6.094;2022-08-01T02:43:26;1.30;;;1.10;;
13847;SDS011;6994;49.752;6.094;2022-08-01T02:45:53;1.67;;;1.37;;
13847;SDS011;6994;49.752;6.094;2022-08-01T02:48:20;1.75;;;1.45;;
13847;SDS011;6994;49.752;6.094;2022-08-01T02:50:48;1.55;;;1.45;;
13847;SDS011;6994;49.752;6.094;2022-08-01T02:53:16;1.35;;;1.25;;
13847;SDS011;6994;49.752;6.094;2022-08-01T02:55:42;2.20;;;1.52;;
13847;SDS011;6994;49.752;6.094;2022-08-01T02:58:09;1.30;;;1.20;;
13847;SDS011;6994;49.752;6.094;2022-08-01T03:00:36;2.33;;;1.20;;
13847;SDS011;6994;49.752;6.094;2022-08-01T03:03:05;1.52;;;1.15;;
13847;SDS011;6994;49.752;6.094;2022-08-01T03:05:31;2.20;;;1.30;;
13847;SDS011;6994;49.752;6.094;2022-08-01T03:07:59;1.80;;;1.30;;
13847;SDS011;6994;49.752;6.094;2022-08-01T03:10:27;1.12;;;1.02;;
13847;SDS011;6994;49.752;6.094;2022-08-01T03:12:55;1.83;;;1.15;;
13847;SDS011;6994;49.752;6.094;2022-08-01T03:15:23;2.33;;;1.80;;
13847;SDS011;6994;49.752;6.094;2022-08-01T03:17:50;2.08;;;1.05;;
13847;SDS011;6994;49.752;6.094;2022-08-01T03:20:17;2.58;;;0.98;;
13847;SDS011;6994;49.752;6.094;2022-08-01T03:22:44;1.42;;;1.33;;
13847;SDS011;6994;49.752;6.094;2022-08-01T03:25:12;1.30;;;1.20;;
13847;SDS011;6994;49.752;6.094;2022-08-01T03:27:39;2.10;;;1.30;;
13847;SDS011;6994;49.752;6.094;2022-08-01T03:30:06;2.17;;;1.20;;
13847;SDS011;6994;49.752;6.094;2022-08-01T03:32:33;1.48;;;1.37;;
13847;SDS011;6994;49.752;6.094;2022-08-01T03:35:00;1.40;;;1.30;;
13847;SDS011;6994;49.752;6.094;2022-08-01T03:37:29;2.05;;;1.62;;
13847;SDS011;6994;49.752;6.094;2022-08-01T03:40:14;1.55;;;1.35;;
13847;SDS011;6994;49.752;6.094;2022-08-01T03:42:47;2.28;;;2.17;;
13847;SDS011;6994;49.752;6.094;2022-08-01T03:45:24;3.30;;;1.25;;
13847;SDS011;6994;49.752;6.094;2022-08-01T03:47:41;2.92;;;1.42;;
13847;SDS011;6994;49.752;6.094;2022-08-01T03:50:07;2.53;;;1.20;;
13847;SDS011;6994;49.752;6.094;2022-08-01T03:52:34;1.65;;;1.55;;
13847;SDS011;6994;49.752;6.094;2022-08-01T03:55:03;2.83;;;1.20;;
13847;SDS011;6994;49.752;6.094;2022-08-01T03:57:30;1.48;;;1.37;;
13847;SDS011;6994;49.752;6.094;2022-08-01T03:59:57;1.58;;;1.48;;
13847;SDS011;6994;49.752;6.094;2022-08-01T04:02:25;2.00;;;1.67;;
13847;SDS011;6994;49.752;6.094;2022-08-01T04:04:51;1.40;;;1.23;;
13847;SDS011;6994;49.752;6.094;2022-08-01T04:07:22;1.92;;;1.62;;
13847;SDS011;6994;49.752;6.094;2022-08-01T04:09:49;3.00;;;1.48;;
13847;SDS011;6994;49.752;6.094;2022-08-01T04:12:16;1.15;;;1.10;;
13847;SDS011;6994;49.752;6.094;2022-08-01T04:14:43;1.65;;;1.40;;
13847;SDS011;6994;49.752;6.094;2022-08-01T04:17:10;1.42;;;1.33;;
13847;SDS011;6994;49.752;6.094;2022-08-01T04:19:37;2.05;;;1.65;;
13847;SDS011;6994;49.752;6.094;2022-08-01T04:22:05;2.40;;;1.70;;
13847;SDS011;6994;49.752;6.094;2022-08-01T04:24:32;4.10;;;1.58;;
13847;SDS011;6994;49.752;6.094;2022-08-01T04:27:00;1.58;;;1.20;;
13847;SDS011;6994;49.752;6.094;2022-08-01T04:29:28;1.40;;;1.30;;
13847;SDS011;6994;49.752;6.094;2022-08-01T04:31:55;1.55;;;1.45;;
13847;SDS011;6994;49.752;6.094;2022-08-01T04:34:23;4.22;;;1.50;;
13847;SDS011;6994;49.752;6.094;2022-08-01T04:36:51;1.58;;;1.15;;
13847;SDS011;6994;49.752;6.094;2022-08-01T04:39:18;1.48;;;1.27;;
13847;SDS011;6994;49.752;6.094;2022-08-01T04:41:45;6.45;;;1.48;;
13847;SDS011;6994;49.752;6.094;2022-08-01T04:44:12;3.00;;;1.12;;
13847;SDS011;6994;49.752;6.094;2022-08-01T04:46:39;1.65;;;1.55;;
13847;SDS011;6994;49.752;6.094;2022-08-01T04:49:06;2.10;;;1.50;;
13847;SDS011;6994;49.752;6.094;2022-08-01T04:51:33;1.42;;;1.23;;
13847;SDS011;6994;49.752;6.094;2022-08-01T04:54:01;1.67;;;1.37;;
13847;SDS011;6994;49.752;6.094;2022-08-01T04:56:28;2.97;;;1.10;;
13847;SDS011;6994;49.752;6.094;2022-08-01T04:58:55;1.10;;;1.00;;
13847;SDS011;6994;49.752;6.094;2022-08-01T05:01:40;2.05;;;1.27;;
13847;SDS011;6994;49.752;6.094;2022-08-01T05:04:08;2.00;;;1.45;;
13847;SDS011;6994;49.752;6.094;2022-08-01T05:06:35;1.98;;;1.83;;
13847;SDS011;6994;49.752;6.094;2022-08-01T05:09:02;1.52;;;1.20;;
13847;SDS011;6994;49.752;6.094;2022-08-01T05:11:29;2.08;;;1.60;;
13847;SDS011;6994;49.752;6.094;2022-08-01T05:13:56;1.52;;;1.25;;
13847;SDS011;6994;49.752;6.094;2022-08-01T05:16:24;1.00;;;1.00;;
13847;SDS011;6994;49.752;6.094;2022-08-01T05:18:51;4.10;;;1.42;;
13847;SDS011;6994;49.752;6.094;2022-08-01T05:21:18;2.53;;;1.17;;
13847;SDS011;6994;49.752;6.094;2022-08-01T05:23:45;1.20;;;1.10;;
13847;SDS011;6994;49.752;6.094;2022-08-01T05:26:12;1.45;;;1.33;;
13847;SDS011;6994;49.752;6.094;2022-08-01T05:28:41;1.17;;;1.08;;
13847;SDS011;6994;49.752;6.094;2022-08-01T05:31:08;1.60;;;1.50;;
13847;SDS011;6994;49.752;6.094;2022-08-01T05:33:35;1.60;;;1.50;;
13847;SDS011;6994;49.752;6.094;2022-08-01T05:36:03;1.23;;;1.15;;
13847;SDS011;6994;49.752;6.094;2022-08-01T05:38:30;1.20;;;1.10;;
13847;SDS011;6994;49.752;6.094;2022-08-01T05:40:57;2.10;;;1.33;;
13847;SDS011;6994;49.752;6.094;2022-08-01T05:43:24;2.12;;;1.30;;
13847;SDS011;6994;49.752;6.094;2022-08-01T05:45:52;1.62;;;1.30;;
13847;SDS011;6994;49.752;6.094;2022-08-01T05:48:19;1.40;;;1.30;;
13847;SDS011;6994;49.752;6.094;2022-08-01T05:50:46;5.32;;;0.98;;
13847;SDS011;6994;49.752;6.094;2022-08-01T05:53:13;1.48;;;0.90;;
13847;SDS011;6994;49.752;6.094;2022-08-01T05:55:40;1.90;;;1.23;;
13847;SDS011;6994;49.752;6.094;2022-08-01T05:58:08;0.85;;;0.85;;
13847;SDS011;6994;49.752;6.094;2022-08-01T06:00:36;1.40;;;0.93;;
13847;SDS011;6994;49.752;6.094;2022-08-01T06:03:04;1.85;;;1.00;;
13847;SDS011;6994;49.752;6.094;2022-08-01T06:05:32;1.40;;;1.20;;
13847;SDS011;6994;49.752;6.094;2022-08-01T06:07:59;1.05;;;1.00;;
13847;SDS011;6994;49.752;6.094;2022-08-01T06:10:27;2.22;;;1.08;;
13847;SDS011;6994;49.752;6.094;2022-08-01T06:12:55;1.27;;;0.80;;
13847;SDS011;6994;49.752;6.094;2022-08-01T06:15:23;0.80;;;0.80;;
13847;SDS011;6994;49.752;6.094;2022-08-01T06:17:51;0.82;;;0.75;;
13847;SDS011;6994;49.752;6.094;2022-08-01T06:20:18;0.90;;;0.90;;
13847;SDS011;6994;49.752;6.094;2022-08-01T06:22:45;1.75;;;1.00;;
13847;SDS011;6994;49.752;6.094;2022-08-01T06:25:12;1.00;;;1.00;;
13847;SDS011;6994;49.752;6.094;2022-08-01T06:27:39;2.60;;;0.65;;
13847;SDS011;6994;49.752;6.094;2022-08-01T06:30:07;0.75;;;0.75;;
13847;SDS011;6994;49.752;6.094;2022-08-01T06:32:34;0.75;;;0.75;;
13847;SDS011;6994;49.752;6.094;2022-08-01T06:35:01;1.48;;;0.62;;
13847;SDS011;6994;49.752;6.094;2022-08-01T06:37:30;0.88;;;0.80;;
13847;SDS011;6994;49.752;6.094;2022-08-01T06:40:08;1.02;;;0.93;;
13847;SDS011;6994;49.752;6.094;2022-08-01T06:42:34;0.65;;;0.65;;
13847;SDS011;6994;49.752;6.094;2022-08-01T06:45:04;1.05;;;0.85;;
13847;SDS011;6994;49.752;6.094;2022-08-01T06:47:34;1.92;;;1.00;;
13847;SDS011;6994;49.752;6.094;2022-08-01T06:50:01;0.93;;;0.93;;
13847;SDS011;6994;49.752;6.094;2022-08-01T06:52:28;0.68;;;0.68;;
13847;SDS011;6994;49.752;6.094;2022-08-01T06:54:55;0.68;;;0.65;;
13847;SDS011;6994;49.752;6.094;2022-08-01T06:57:22;0.40;;;0.40;;
13847;SDS011;6994;49.752;6.094;2022-08-01T06:59:50;0.60;;;0.60;;
13847;SDS011;6994;49.752;6.094;2022-08-01T07:02:17;0.98;;;0.90;;
13847;SDS011;6994;49.752;6.094;2022-08-01T07:04:44;2.33;;;0.50;;
13847;SDS011;6994;49.752;6.094;2022-08-01T07:07:11;0.68;;;0.62;;
13847;SDS011;6994;49.752;6.094;2022-08-01T07:09:38;2.03;;;0.80;;
13847;SDS011;6994;49.752;6.094;2022-08-01T07:12:06;0.55;;;0.55;;
13847;SDS011;6994;49.752;6.094;2022-08-01T07:14:33;0.77;;;0.62;;
13847;SDS011;6994;49.752;6.094;2022-08-01T07:17:00;1.20;;;0.70;;
13847;SDS011;6994;49.752;6.094;2022-08-01T07:19:27;0.75;;;0.75;;
13847;SDS011;6994;49.752;6.094;2022-08-01T07:21:54;1.23;;;0.80;;
13847;SDS011;6994;49.752;6.094;2022-08-01T07:24:22;1.40;;;0.93;;
13847;SDS011;6994;49.752;6.094;2022-08-01T07:26:49;0.75;;;0.70;;
13847;SDS011;6994;49.752;6.094;2022-08-01T07:29:16;0.60;;;0.60;;
13847;SDS011;6994;49.752;6.094;2022-08-01T07:31:43;0.62;;;0.62;;
13847;SDS011;6994;49.752;6.094;2022-08-01T07:34:10;0.60;;;0.60;;
13847;SDS011;6994;49.752;6.094;2022-08-01T07:36:38;0.80;;;0.80;;
13847;SDS011;6994;49.752;6.094;2022-08-01T07:39:06;0.60;;;0.60;;
13847;SDS011;6994;49.752;6.094;2022-08-01T07:41:34;1.20;;;0.70;;
13847;SDS011;6994;49.752;6.094;2022-08-01T07:44:01;0.60;;;0.60;;
13847;SDS011;6994;49.752;6.094;2022-08-01T07:46:29;0.68;;;0.57;;
13847;SDS011;6994;49.752;6.094;2022-08-01T07:48:56;1.30;;;0.70;;
13847;SDS011;6994;49.752;6.094;2022-08-01T07:51:23;1.75;;;0.70;;
13847;SDS011;6994;49.752;6.094;2022-08-01T07:53:50;1.10;;;0.60;;
13847;SDS011;6994;49.752;6.094;2022-08-01T07:56:18;0.68;;;0.60;;
13847;SDS011;6994;49.752;6.094;2022-08-01T07:58:45;1.60;;;0.60;;
13847;SDS011;6994;49.752;6.094;2022-08-01T08:01:12;0.75;;;0.47;;
13847;SDS011;6994;49.752;6.094;2022-08-01T08:03:39;0.68;;;0.37;;
13847;SDS011;6994;49.752;6.094;2022-08-01T08:06:07;1.40;;;0.68;;
13847;SDS011;6994;49.752;6.094;2022-08-01T08:08:35;0.70;;;0.70;;
13847;SDS011;6994;49.752;6.094;2022-08-01T08:11:03;0.75;;;0.60;;
13847;SDS011;6994;49.752;6.094;2022-08-01T08:13:31;0.93;;;0.75;;
13847;SDS011;6994;49.752;6.094;2022-08-01T08:15:59;0.82;;;0.82;;
13847;SDS011;6994;49.752;6.094;2022-08-01T08:18:27;1.08;;;0.57;;
13847;SDS011;6994;49.752;6.094;2022-08-01T08:20:55;0.52;;;0.52;;
13847;SDS011;6994;49.752;6.094;2022-08-01T08:23:22;1.35;;;0.60;;
13847;SDS011;6994;49.752;6.094;2022-08-01T08:26:08;0.77;;;0.77;;
13847;SDS011;6994;49.752;6.094;2022-08-01T08:28:35;0.65;;;0.65;;
13847;SDS011;6994;49.752;6.094;2022-08-01T08:31:02;2.42;;;0.82;;
13847;SDS011;6994;49.752;6.094;2022-08-01T08:33:29;1.55;;;0.52;;
13847;SDS011;6994;49.752;6.094;2022-08-01T08:35:56;1.85;;;0.70;;
13847;SDS011;6994;49.752;6.094;2022-08-01T08:38:24;0.80;;;0.80;;
13847;SDS011;6994;49.752;6.094;2022-08-01T08:40:52;1.92;;;0.90;;
13847;SDS011;6994;49.752;6.094;2022-08-01T08:43:21;0.85;;;0.82;;
13847;SDS011;6994;49.752;6.094;2022-08-01T08:45:48;1.00;;;0.70;;
13847;SDS011;6994;49.752;6.094;2022-08-01T08:48:16;0.80;;;0.62;;
13847;SDS011;6994;49.752;6.094;2022-08-01T08:50:43;0.88;;;0.60;;
13847;SDS011;6994;49.752;6.094;2022-08-01T08:53:10;0.88;;;0.88;;
13847;SDS011;6994;49.752;6.094;2022-08-01T08:55:37;2.95;;;0.80;;
13847;SDS011;6994;49.752;6.094;2022-08-01T08:58:04;1.35;;;0.77;;
13847;SDS011;6994;49.752;6.094;2022-08-01T09:00:32;1.35;;;0.70;;
13847;SDS011;6994;49.752;6.094;2022-08-01T09:02:59;1.67;;;0.70;;
13847;SDS011;6994;49.752;6.094;2022-08-01T09:05:26;0.93;;;0.62;;
13847;SDS011;6994;49.752;6.094;2022-08-01T09:07:53;2.20;;;1.02;;
13847;SDS011;6994;49.752;6.094;2022-08-01T09:10:21;1.73;;;0.85;;
13847;SDS011;6994;49.752;6.094;2022-08-01T09:13:08;1.48;;;0.70;;
13847;SDS011;6994;49.752;6.094;2022-08-01T09:15:38;0.77;;;0.75;;
13847;SDS011;6994;49.752;6.094;2022-08-01T09:18:07;1.85;;;1.00;;
13847;SDS011;6994;49.752;6.094;2022-08-01T09:20:34;0.85;;;0.70;;
13847;SDS011;6994;49.752;6.094;2022-08-01T09:23:02;0.93;;;0.60;;
13847;SDS011;6994;49.752;6.094;2022-08-01T09:25:29;0.70;;;0.70;;
13847;SDS011;6994;49.752;6.094;2022-08-01T09:28:03;1.58;;;1.48;;
13847;SDS011;6994;49.752;6.094;2022-08-01T09:30:29;0.88;;;0.65;;
13847;SDS011;6994;49.752;6.094;2022-08-01T09:32:57;0.95;;;0.70;;
13847;SDS011;6994;49.752;6.094;2022-08-01T09:35:27;0.85;;;0.60;;
13847;SDS011;6994;49.752;6.094;2022-08-01T09:38:19;1.00;;;0.70;;
13847;SDS011;6994;49.752;6.094;2022-08-01T09:40:52;1.48;;;0.90;;
13847;SDS011;6994;49.752;6.094;2022-08-01T09:43:14;1.10;;;1.00;;
13847;SDS011;6994;49.752;6.094;2022-08-01T09:45:42;1.15;;;1.00;;
13847;SDS011;6994;49.752;6.094;2022-08-01T09:48:09;0.75;;;0.75;;
13847;SDS011;6994;49.752;6.094;2022-08-01T09:50:40;0.60;;;0.60;;
13847;SDS011;6994;49.752;6.094;2022-08-01T09:53:09;2.72;;;0.80;;
13847;SDS011;6994;49.752;6.094;2022-08-01T09:55:37;1.48;;;1.00;;
13847;SDS011;6994;49.752;6.094;2022-08-01T09:58:04;0.70;;;0.70;;
13847;SDS011;6994;49.752;6.094;2022-08-01T10:00:31;1.17;;;0.77;;
13847;SDS011;6994;49.752;6.094;2022-08-01T10:02:58;0.73;;;0.73;;
13847;SDS011;6994;49.752;6.094;2022-08-01T10:05:32;1.62;;;0.70;;
13847;SDS011;6994;49.752;6.094;2022-08-01T10:08:02;2.35;;;0.70;;
13847;SDS011;6994;49.752;6.094;2022-08-01T10:10:28;1.95;;;0.80;;
13847;SDS011;6994;49.752;6.094;2022-08-01T10:12:56;1.62;;;0.75;;
13847;SDS011;6994;49.752;6.094;2022-08-01T10:15:23;0.80;;;0.80;;
13847;SDS011;6994;49.752;6.094;2022-08-01T10:17:54;0.82;;;0.70;;
13847;SDS011;6994;49.752;6.094;2022-08-01T10:20:21;0.90;;;0.90;;
13847;SDS011;6994;49.752;6.094;2022-08-01T10:22:47;1.98;;;0.85;;
13847;SDS011;6994;49.752;6.094;2022-08-01T10:25:15;0.60;;;0.60;;
13847;SDS011;6994;49.752;6.094;2022-08-01T10:27:43;0.93;;;0.90;;
13847;SDS011;6994;49.752;6.094;2022-08-01T10:30:13;1.27;;;0.82;;
13847;SDS011;6994;49.752;6.094;2022-08-01T10:32:40;0.65;;;0.65;;
13847;SDS011;6994;49.752;6.094;2022-08-01T10:35:08;0.98;;;0.90;;
13847;SDS011;6994;49.752;6.094;2022-08-01T10:37:35;0.43;;;0.43;;
13847;SDS011;6994;49.752;6.094;2022-08-01T10:40:03;0.82;;;0.70;;
13847;SDS011;6994;49.752;6.094;2022-08-01T10:42:31;0.80;;;0.80;;
13847;SDS011;6994;49.752;6.094;2022-08-01T10:44:58;0.82;;;0.80;;
13847;SDS011;6994;49.752;6.094;2022-08-01T10:47:27;1.45;;;0.80;;
13847;SDS011;6994;49.752;6.094;2022-08-01T10:52:25;0.70;;;0.60;;
13847;SDS011;6994;49.752;6.094;2022-08-01T10:55:05;1.30;;;0.90;;
13847;SDS011;6994;49.752;6.094;2022-08-01T10:57:45;0.70;;;0.70;;
13847;SDS011;6994;49.752;6.094;2022-08-01T11:00:08;0.80;;;0.80;;
13847;SDS011;6994;49.752;6.094;2022-08-01T11:02:35;0.77;;;0.77;;
13847;SDS011;6994;49.752;6.094;2022-08-01T11:05:19;1.02;;;0.88;;
13847;SDS011;6994;49.752;6.094;2022-08-01T11:10:04;0.90;;;0.90;;
13847;SDS011;6994;49.752;6.094;2022-08-01T11:12:39;0.68;;;0.68;;
13847;SDS011;6994;49.752;6.094;2022-08-01T11:20:07;1.70;;;0.90;;
13847;SDS011;6994;49.752;6.094;2022-08-01T11:30:41;1.67;;;0.97;;
13847;SDS011;6994;49.752;6.094;2022-08-01T11:33:08;1.17;;;0.85;;
13847;SDS011;6994;49.752;6.094;2022-08-01T11:35:35;0.80;;;0.80;;
13847;SDS011;6994;49.752;6.094;2022-08-01T11:46:47;1.10;;;0.70;;
13847;SDS011;6994;49.752;6.094;2022-08-01T11:54:38;1.83;;;1.17;;
13847;SDS011;6994;49.752;6.094;2022-08-01T11:57:11;1.00;;;0.90;;
13847;SDS011;6994;49.752;6.094;2022-08-01T11:59:39;0.70;;;0.70;;
13847;SDS011;6994;49.752;6.094;2022-08-01T12:04:47;0.80;;;0.80;;
13847;SDS011;6994;49.752;6.094;2022-08-01T12:07:17;1.02;;;0.70;;
13847;SDS011;6994;49.752;6.094;2022-08-01T12:09:44;0.68;;;0.68;;
13847;SDS011;6994;49.752;6.094;2022-08-01T12:12:14;1.15;;;1.08;;
13847;SDS011;6994;49.752;6.094;2022-08-01T12:14:39;0.68;;;0.68;;
13847;SDS011;6994;49.752;6.094;2022-08-01T12:17:06;0.60;;;0.60;;
13847;SDS011;6994;49.752;6.094;2022-08-01T12:19:33;0.70;;;0.70;;
13847;SDS011;6994;49.752;6.094;2022-08-01T12:22:10;1.85;;;0.90;;
13847;SDS011;6994;49.752;6.094;2022-08-01T12:24:37;1.10;;;0.70;;
13847;SDS011;6994;49.752;6.094;2022-08-01T12:27:04;1.15;;;0.80;;
13847;SDS011;6994;49.752;6.094;2022-08-01T12:29:35;1.92;;;0.90;;
13847;SDS011;6994;49.752;6.094;2022-08-01T12:32:01;0.88;;;0.85;;
13847;SDS011;6994;49.752;6.094;2022-08-01T12:34:28;0.80;;;0.75;;
13847;SDS011;6994;49.752;6.094;2022-08-01T12:36:56;1.55;;;0.80;;
13847;SDS011;6994;49.752;6.094;2022-08-01T12:39:28;0.73;;;0.70;;
13847;SDS011;6994;49.752;6.094;2022-08-01T12:41:50;0.65;;;0.50;;
13847;SDS011;6994;49.752;6.094;2022-08-01T12:44:18;1.02;;;0.95;;
13847;SDS011;6994;49.752;6.094;2022-08-01T12:46:45;1.20;;;1.00;;
13847;SDS011;6994;49.752;6.094;2022-08-01T12:49:12;1.87;;;0.55;;
13847;SDS011;6994;49.752;6.094;2022-08-01T12:51:39;0.55;;;0.52;;
13847;SDS011;6994;49.752;6.094;2022-08-01T12:54:07;0.50;;;0.50;;
13847;SDS011;6994;49.752;6.094;2022-08-01T12:56:34;0.62;;;0.60;;
13847;SDS011;6994;49.752;6.094;2022-08-01T12:59:01;0.60;;;0.60;;
13847;SDS011;6994;49.752;6.094;2022-08-01T13:01:28;0.80;;;0.70;;
13847;SDS011;6994;49.752;6.094;2022-08-01T13:03:59;1.05;;;0.98;;
13847;SDS011;6994;49.752;6.094;2022-08-01T13:06:28;0.70;;;0.60;;
13847;SDS011;6994;49.752;6.094;2022-08-01T13:09:04;0.50;;;0.50;;
13847;SDS011;6994;49.752;6.094;2022-08-01T13:11:32;0.75;;;0.70;;
13847;SDS011;6994;49.752;6.094;2022-08-01T13:13:59;0.40;;;0.35;;
13847;SDS011;6994;49.752;6.094;2022-08-01T13:16:27;1.00;;;0.57;;
13847;SDS011;6994;49.752;6.094;2022-08-01T13:18:55;0.75;;;0.50;;
13847;SDS011;6994;49.752;6.094;2022-08-01T13:21:26;1.10;;;0.73;;
13847;SDS011;6994;49.752;6.094;2022-08-01T13:24:11;0.68;;;0.62;;
13847;SDS011;6994;49.752;6.094;2022-08-01T13:26:41;0.50;;;0.50;;
13847;SDS011;6994;49.752;6.094;2022-08-01T13:29:08;0.60;;;0.60;;
13847;SDS011;6994;49.752;6.094;2022-08-01T13:31:36;2.00;;;0.73;;
13847;SDS011;6994;49.752;6.094;2022-08-01T13:34:02;0.93;;;0.88;;
13847;SDS011;6994;49.752;6.094;2022-08-01T13:36:29;0.43;;;0.40;;
13847;SDS011;6994;49.752;6.094;2022-08-01T13:38:59;0.65;;;0.65;;
13847;SDS011;6994;49.752;6.094;2022-08-01T13:41:41;1.95;;;0.82;;
13847;SDS011;6994;49.752;6.094;2022-08-01T13:44:09;0.70;;;0.70;;
13847;SDS011;6994;49.752;6.094;2022-08-01T13:46:36;0.50;;;0.50;;
13847;SDS011;6994;49.752;6.094;2022-08-01T13:49:03;0.55;;;0.47;;
13847;SDS011;6994;49.752;6.094;2022-08-01T13:51:30;2.40;;;0.68;;
13847;SDS011;6994;49.752;6.094;2022-08-01T13:53:57;0.45;;;0.45;;
13847;SDS011;6994;49.752;6.094;2022-08-01T13:56:25;0.82;;;0.82;;
13847;SDS011;6994;49.752;6.094;2022-08-01T13:58:52;1.12;;;0.65;;
13847;SDS011;6994;49.752;6.094;2022-08-01T14:01:19;0.60;;;0.60;;
13847;SDS011;6994;49.752;6.094;2022-08-01T14:03:47;0.70;;;0.70;;
13847;SDS011;6994;49.752;6.094;2022-08-01T14:06:15;0.95;;;0.68;;
13847;SDS011;6994;49.752;6.094;2022-08-01T14:08:42;0.80;;;0.80;;
13847;SDS011;6994;49.752;6.094;2022-08-01T14:11:09;0.60;;;0.60;;
13847;SDS011;6994;49.752;6.094;2022-08-01T14:13:37;2.20;;;0.60;;
13847;SDS011;6994;49.752;6.094;2022-08-01T14:16:07;1.40;;;0.90;;
13847;SDS011;6994;49.752;6.094;2022-08-01T14:18:31;0.93;;;0.60;;
13847;SDS011;6994;49.752;6.094;2022-08-01T14:20:58;0.47;;;0.47;;
13847;SDS011;6994;49.752;6.094;2022-08-01T14:23:26;0.60;;;0.60;;
13847;SDS011;6994;49.752;6.094;2022-08-01T14:25:53;0.95;;;0.85;;
13847;SDS011;6994;49.752;6.094;2022-08-01T14:28:20;0.70;;;0.70;;
13847;SDS011;6994;49.752;6.094;2022-08-01T14:30:47;0.55;;;0.55;;
13847;SDS011;6994;49.752;6.094;2022-08-01T14:33:14;0.62;;;0.62;;
13847;SDS011;6994;49.752;6.094;2022-08-01T14:35:41;0.62;;;0.60;;
13847;SDS011;6994;49.752;6.094;2022-08-01T14:38:09;1.27;;;0.40;;
13847;SDS011;6994;49.752;6.094;2022-08-01T14:40:36;1.65;;;0.47;;
13847;SDS011;6994;49.752;6.094;2022-08-01T14:43:03;0.80;;;0.80;;
13847;SDS011;6994;49.752;6.094;2022-08-01T14:45:30;2.15;;;0.80;;
13847;SDS011;6994;49.752;6.094;2022-08-01T14:47:58;1.20;;;0.70;;
13847;SDS011;6994;49.752;6.094;2022-08-01T14:50:25;0.73;;;0.60;;
13847;SDS011;6994;49.752;6.094;2022-08-01T14:52:52;0.60;;;0.60;;
13847;SDS011;6994;49.752;6.094;2022-08-01T14:55:19;0.85;;;0.70;;
13847;SDS011;6994;49.752;6.094;2022-08-01T14:57:46;1.20;;;0.70;;
13847;SDS011;6994;49.752;6.094;2022-08-01T15:00:14;0.60;;;0.60;;
13847;SDS011;6994;49.752;6.094;2022-08-01T15:02:41;1.80;;;0.70;;
13847;SDS011;6994;49.752;6.094;2022-08-01T15:05:08;3.00;;;1.00;;
13847;SDS011;6994;49.752;6.094;2022-08-01T15:07:36;0.90;;;0.80;;
13847;SDS011;6994;49.752;6.094;2022-08-01T15:10:03;0.85;;;0.62;;
13847;SDS011;6994;49.752;6.094;2022-08-01T15:12:30;1.95;;;0.70;;
13847;SDS011;6994;49.752;6.094;2022-08-01T15:14:58;2.15;;;0.60;;
13847;SDS011;6994;49.752;6.094;2022-08-01T15:17:27;0.68;;;0.68;;
13847;SDS011;6994;49.752;6.094;2022-08-01T15:19:57;0.62;;;0.62;;
13847;SDS011;6994;49.752;6.094;2022-08-01T15:22:24;1.17;;;0.75;;
13847;SDS011;6994;49.752;6.094;2022-08-01T15:24:52;0.88;;;0.70;;
13847;SDS011;6994;49.752;6.094;2022-08-01T15:27:19;0.60;;;0.60;;
13847;SDS011;6994;49.752;6.094;2022-08-01T15:29:47;0.82;;;0.80;;
13847;SDS011;6994;49.752;6.094;2022-08-01T15:32:14;1.10;;;1.00;;
13847;SDS011;6994;49.752;6.094;2022-08-01T15:34:41;0.60;;;0.60;;
13847;SDS011;6994;49.752;6.094;2022-08-01T15:37:08;0.88;;;0.70;;
13847;SDS011;6994;49.752;6.094;2022-08-01T15:39:35;0.73;;;0.60;;
13847;SDS011;6994;49.752;6.094;2022-08-01T15:42:05;0.80;;;0.70;;
13847;SDS011;6994;49.752;6.094;2022-08-01T15:44:32;0.57;;;0.50;;
13847;SDS011;6994;49.752;6.094;2022-08-01T15:47:00;1.12;;;0.70;;
13847;SDS011;6994;49.752;6.094;2022-08-01T15:49:27;1.12;;;0.95;;
13847;SDS011;6994;49.752;6.094;2022-08-01T15:51:54;0.60;;;0.60;;